sensor_id;sensor_type;location;lat;lon;timestamp;pressure;altitude;pressure_sealevel;temperature;humidity
70338;BME280;57757;53.198;19.646;2023-01-05T00:01:58;98821.59;;;7.11;80.93
70338;BME280;57757;53.198;19.646;2023-01-05T00:04:26;98826.09;;;7.12;80.87
70338;BME280;57757;53.198;19.646;2023-01-05T00:06:54;98825.55;;;7.12;80.97
70338;BME280;57757;53.198;19.646;2023-01-05T00:09:21;98823.98;;;7.12;81.04
70338;BME280;57757;53.198;19.646;2023-01-05T00:11:49;98827.23;;;7.13;81.12
70338;BME280;57757;53.198;19.646;2023-01-05T00:14:33;98834.83;;;7.14;81.04
70338;BME280;57757;53.198;19.646;2023-01-05T00:17:24;98825.30;;;7.15;81.05
70338;BME280;57757;53.198;19.646;2023-01-05T00:20:16;98822.01;;;7.15;80.93
70338;BME280;57757;53.198;19.646;2023-01-05T00:23:01;98816.64;;;7.15;80.97
70338;BME280;57757;53.198;19.646;2023-01-05T00:25:31;98815.61;;;7.15;81.13
70338;BME280;57757;53.198;19.646;2023-01-05T00:28:00;98805.39;;;7.16;80.94
70338;BME280;57757;53.198;19.646;2023-01-05T00:30:32;98807.44;;;7.16;81.15
70338;BME280;57757;53.198;19.646;2023-01-05T00:33:01;98809.11;;;7.18;81.14
70338;BME280;57757;53.198;19.646;2023-01-05T00:35:29;98800.96;;;7.19;81.17
70338;BME280;57757;53.198;19.646;2023-01-05T00:37:56;98794.91;;;7.19;81.09
70338;BME280;57757;53.198;19.646;2023-01-05T00:40:24;98787.12;;;7.19;81.03
70338;BME280;57757;53.198;19.646;2023-01-05T00:42:52;98783.13;;;7.20;81.16
70338;BME280;57757;53.198;19.646;2023-01-05T00:45:20;98770.81;;;7.21;81.19
70338;BME280;57757;53.198;19.646;2023-01-05T00:47:48;98775.27;;;7.21;81.28
70338;BME280;57757;53.198;19.646;2023-01-05T00:50:19;98762.15;;;7.21;81.10
70338;BME280;57757;53.198;19.646;2023-01-05T00:52:48;98764.27;;;7.20;81.24
70338;BME280;57757;53.198;19.646;2023-01-05T00:55:16;98761.52;;;7.20;81.23
70338;BME280;57757;53.198;19.646;2023-01-05T00:57:43;98767.94;;;7.19;81.21
70338;BME280;57757;53.198;19.646;2023-01-05T01:00:16;98769.52;;;7.18;81.09
70338;BME280;57757;53.198;19.646;2023-01-05T01:02:46;98775.92;;;7.18;81.06
70338;BME280;57757;53.198;19.646;2023-01-05T01:05:14;98772.81;;;7.17;81.13
70338;BME280;57757;53.198;19.646;2023-01-05T01:07:42;98763.69;;;7.17;81.00
70338;BME280;57757;53.198;19.646;2023-01-05T01:10:10;98761.48;;;7.15;81.12
70338;BME280;57757;53.198;19.646;2023-01-05T01:12:38;98762.90;;;7.14;81.07
70338;BME280;57757;53.198;19.646;2023-01-05T01:15:07;98756.70;;;7.13;81.09
70338;BME280;57757;53.198;19.646;2023-01-05T01:17:34;98763.30;;;7.12;81.05
70338;BME280;57757;53.198;19.646;2023-01-05T01:20:03;98761.94;;;7.12;81.09
70338;BME280;57757;53.198;19.646;2023-01-05T01:22:31;98761.98;;;7.11;81.11
70338;BME280;57757;53.198;19.646;2023-01-05T01:24:58;98765.48;;;7.10;80.87
70338;BME280;57757;53.198;19.646;2023-01-05T01:27:29;98751.89;;;7.07;81.03
70338;BME280;57757;53.198;19.646;2023-01-05T01:29:57;98763.13;;;7.07;81.18
70338;BME280;57757;53.198;19.646;2023-01-05T01:32:25;98757.63;;;7.06;81.07
70338;BME280;57757;53.198;19.646;2023-01-05T01:34:53;98755.26;;;7.05;81.15
70338;BME280;57757;53.198;19.646;2023-01-05T01:37:21;98762.90;;;7.04;81.05
70338;BME280;57757;53.198;19.646;2023-01-05T01:39:49;98752.23;;;7.02;81.10
70338;BME280;57757;53.198;19.646;2023-01-05T01:42:17;98745.21;;;7.00;81.09
70338;BME280;57757;53.198;19.646;2023-01-05T01:44:56;98749.55;;;6.99;81.07
70338;BME280;57757;53.198;19.646;2023-01-05T01:52:57;98741.21;;;6.95;81.12
70338;BME280;57757;53.198;19.646;2023-01-05T01:55:28;98738.80;;;6.95;81.03
70338;BME280;57757;53.198;19.646;2023-01-05T01:57:58;98736.56;;;6.95;81.13
70338;BME280;57757;53.198;19.646;2023-01-05T02:00:26;98732.95;;;6.94;81.07
70338;BME280;57757;53.198;19.646;2023-01-05T02:02:55;98733.70;;;6.93;81.02
70338;BME280;57757;53.198;19.646;2023-01-05T02:05:27;98725.59;;;6.92;81.12
70338;BME280;57757;53.198;19.646;2023-01-05T02:07:56;98723.02;;;6.92;80.92
70338;BME280;57757;53.198;19.646;2023-01-05T02:10:44;98723.41;;;6.90;80.97
70338;BME280;57757;53.198;19.646;2023-01-05T02:16:19;98726.92;;;6.88;81.20
70338;BME280;57757;53.198;19.646;2023-01-05T02:36:33;98709.31;;;6.87;81.35
70338;BME280;57757;53.198;19.646;2023-01-05T02:39:41;98711.38;;;6.88;81.57
70338;BME280;57757;53.198;19.646;2023-01-05T02:42:25;98705.69;;;6.88;81.39
70338;BME280;57757;53.198;19.646;2023-01-05T02:44:54;98703.79;;;6.88;81.42
70338;BME280;57757;53.198;19.646;2023-01-05T02:53:09;98700.45;;;6.89;81.54
70338;BME280;57757;53.198;19.646;2023-01-05T02:55:43;98695.58;;;6.90;81.64
70338;BME280;57757;53.198;19.646;2023-01-05T02:58:18;98701.06;;;6.92;81.66
70338;BME280;57757;53.198;19.646;2023-01-05T03:00:58;98695.85;;;6.93;81.56
70338;BME280;57757;53.198;19.646;2023-01-05T03:03:36;98695.64;;;6.94;81.59
70338;BME280;57757;53.198;19.646;2023-01-05T03:06:28;98692.00;;;6.94;81.57
70338;BME280;57757;53.198;19.646;2023-01-05T03:09:00;98689.75;;;6.94;81.47
70338;BME280;57757;53.198;19.646;2023-01-05T03:11:38;98694.98;;;6.93;81.56
70338;BME280;57757;53.198;19.646;2023-01-05T03:14:36;98698.80;;;6.92;81.61
70338;BME280;57757;53.198;19.646;2023-01-05T03:17:07;98693.29;;;6.92;81.57
70338;BME280;57757;53.198;19.646;2023-01-05T03:19:37;98688.31;;;6.90;81.61
70338;BME280;57757;53.198;19.646;2023-01-05T03:22:15;98682.43;;;6.90;81.58
70338;BME280;57757;53.198;19.646;2023-01-05T03:25:01;98673.81;;;6.90;81.73
70338;BME280;57757;53.198;19.646;2023-01-05T03:27:46;98672.26;;;6.90;81.57
70338;BME280;57757;53.198;19.646;2023-01-05T03:36:26;98669.03;;;6.89;81.53
70338;BME280;57757;53.198;19.646;2023-01-05T03:38:58;98669.38;;;6.88;81.68
70338;BME280;57757;53.198;19.646;2023-01-05T03:41:28;98669.55;;;6.89;81.53
70338;BME280;57757;53.198;19.646;2023-01-05T03:43:57;98671.47;;;6.88;81.49
70338;BME280;57757;53.198;19.646;2023-01-05T03:46:26;98675.28;;;6.87;81.58
70338;BME280;57757;53.198;19.646;2023-01-05T03:48:54;98679.24;;;6.88;81.62
70338;BME280;57757;53.198;19.646;2023-01-05T03:51:22;98675.98;;;6.87;81.48
70338;BME280;57757;53.198;19.646;2023-01-05T03:53:50;98681.40;;;6.86;81.49
70338;BME280;57757;53.198;19.646;2023-01-05T03:56:17;98681.84;;;6.83;81.41
70338;BME280;57757;53.198;19.646;2023-01-05T03:58:45;98680.63;;;6.83;81.43
70338;BME280;57757;53.198;19.646;2023-01-05T04:01:13;98681.88;;;6.82;81.39
70338;BME280;57757;53.198;19.646;2023-01-05T04:03:41;98683.10;;;6.81;81.34
70338;BME280;57757;53.198;19.646;2023-01-05T04:06:09;98682.24;;;6.81;81.56
70338;BME280;57757;53.198;19.646;2023-01-05T04:08:38;98682.27;;;6.80;81.53
70338;BME280;57757;53.198;19.646;2023-01-05T04:11:14;98679.00;;;6.79;81.56
70338;BME280;57757;53.198;19.646;2023-01-05T04:13:43;98673.65;;;6.79;81.46
70338;BME280;57757;53.198;19.646;2023-01-05T04:16:11;98674.67;;;6.80;81.60
70338;BME280;57757;53.198;19.646;2023-01-05T04:18:39;98670.66;;;6.81;81.79
70338;BME280;57757;53.198;19.646;2023-01-05T04:21:07;98670.57;;;6.84;81.70
70338;BME280;57757;53.198;19.646;2023-01-05T04:23:35;98670.85;;;6.86;81.72
70338;BME280;57757;53.198;19.646;2023-01-05T04:26:04;98669.39;;;6.88;81.62
70338;BME280;57757;53.198;19.646;2023-01-05T04:28:32;98671.43;;;6.89;81.71
70338;BME280;57757;53.198;19.646;2023-01-05T04:30:59;98671.70;;;6.91;81.81
70338;BME280;57757;53.198;19.646;2023-01-05T04:33:27;98669.57;;;6.93;81.83
70338;BME280;57757;53.198;19.646;2023-01-05T04:35:55;98674.69;;;6.95;81.85
70338;BME280;57757;53.198;19.646;2023-01-05T04:38:23;98663.92;;;6.97;81.82
70338;BME280;57757;53.198;19.646;2023-01-05T04:40:51;98664.55;;;6.98;81.88
70338;BME280;57757;53.198;19.646;2023-01-05T04:43:18;98666.23;;;7.00;81.86
70338;BME280;57757;53.198;19.646;2023-01-05T04:45:47;98662.05;;;7.01;81.81
70338;BME280;57757;53.198;19.646;2023-01-05T04:48:15;98662.83;;;7.03;81.93
70338;BME280;57757;53.198;19.646;2023-01-05T04:50:43;98665.55;;;7.05;81.96
70338;BME280;57757;53.198;19.646;2023-01-05T04:53:11;98657.54;;;7.06;82.01
70338;BME280;57757;53.198;19.646;2023-01-05T04:55:39;98660.60;;;7.08;81.92
70338;BME280;57757;53.198;19.646;2023-01-05T04:58:07;98663.64;;;7.09;82.06
70338;BME280;57757;53.198;19.646;2023-01-05T05:00:38;98661.01;;;7.11;81.81
70338;BME280;57757;53.198;19.646;2023-01-05T05:03:06;98661.08;;;7.14;81.81
70338;BME280;57757;53.198;19.646;2023-01-05T05:05:34;98660.36;;;7.15;81.93
70338;BME280;57757;53.198;19.646;2023-01-05T05:08:02;98662.55;;;7.17;81.91
70338;BME280;57757;53.198;19.646;2023-01-05T05:10:30;98661.64;;;7.18;81.97
70338;BME280;57757;53.198;19.646;2023-01-05T05:12:58;98654.52;;;7.19;81.89
70338;BME280;57757;53.198;19.646;2023-01-05T05:15:25;98655.02;;;7.20;82.00
70338;BME280;57757;53.198;19.646;2023-01-05T05:17:53;98657.43;;;7.20;82.02
70338;BME280;57757;53.198;19.646;2023-01-05T05:20:21;98651.17;;;7.21;82.00
70338;BME280;57757;53.198;19.646;2023-01-05T05:22:49;98651.18;;;7.20;82.03
70338;BME280;57757;53.198;19.646;2023-01-05T05:25:17;98649.23;;;7.21;81.99
70338;BME280;57757;53.198;19.646;2023-01-05T05:27:45;98654.08;;;7.22;81.93
70338;BME280;57757;53.198;19.646;2023-01-05T05:30:13;98651.28;;;7.23;81.96
70338;BME280;57757;53.198;19.646;2023-01-05T05:32:41;98653.46;;;7.25;81.88
70338;BME280;57757;53.198;19.646;2023-01-05T05:35:11;98653.27;;;7.25;81.80
70338;BME280;57757;53.198;19.646;2023-01-05T05:37:39;98656.95;;;7.24;81.85
70338;BME280;57757;53.198;19.646;2023-01-05T05:40:07;98663.71;;;7.24;81.95
70338;BME280;57757;53.198;19.646;2023-01-05T05:42:35;98662.70;;;7.22;81.88
70338;BME280;57757;53.198;19.646;2023-01-05T05:45:03;98667.55;;;7.22;81.97
70338;BME280;57757;53.198;19.646;2023-01-05T05:47:31;98655.81;;;7.22;81.91
70338;BME280;57757;53.198;19.646;2023-01-05T05:49:59;98651.71;;;7.20;81.86
70338;BME280;57757;53.198;19.646;2023-01-05T05:52:27;98656.95;;;7.19;81.81
70338;BME280;57757;53.198;19.646;2023-01-05T05:54:55;98655.06;;;7.18;81.98
70338;BME280;57757;53.198;19.646;2023-01-05T05:57:23;98659.23;;;7.17;81.85
70338;BME280;57757;53.198;19.646;2023-01-05T05:59:50;98655.41;;;7.18;81.86
70338;BME280;57757;53.198;19.646;2023-01-05T06:02:18;98651.80;;;7.18;82.01
70338;BME280;57757;53.198;19.646;2023-01-05T06:04:46;98661.16;;;7.17;81.95
70338;BME280;57757;53.198;19.646;2023-01-05T06:07:14;98659.47;;;7.16;81.79
70338;BME280;57757;53.198;19.646;2023-01-05T06:09:42;98662.58;;;7.16;81.98
70338;BME280;57757;53.198;19.646;2023-01-05T06:12:09;98655.70;;;7.15;81.93
70338;BME280;57757;53.198;19.646;2023-01-05T06:14:37;98659.50;;;7.15;81.93
70338;BME280;57757;53.198;19.646;2023-01-05T06:17:05;98656.75;;;7.15;81.97
70338;BME280;57757;53.198;19.646;2023-01-05T06:19:33;98655.02;;;7.14;81.93
70338;BME280;57757;53.198;19.646;2023-01-05T06:22:01;98656.09;;;7.13;81.99
70338;BME280;57757;53.198;19.646;2023-01-05T06:24:28;98666.65;;;7.13;81.86
70338;BME280;57757;53.198;19.646;2023-01-05T06:26:56;98666.54;;;7.11;81.96
70338;BME280;57757;53.198;19.646;2023-01-05T06:29:24;98671.92;;;7.10;81.95
70338;BME280;57757;53.198;19.646;2023-01-05T06:31:52;98673.20;;;7.08;81.94
70338;BME280;57757;53.198;19.646;2023-01-05T06:34:20;98677.23;;;7.07;81.91
70338;BME280;57757;53.198;19.646;2023-01-05T06:36:48;98674.14;;;7.06;81.87
70338;BME280;57757;53.198;19.646;2023-01-05T06:39:16;98678.17;;;7.05;81.77
70338;BME280;57757;53.198;19.646;2023-01-05T06:41:43;98682.56;;;7.02;81.81
70338;BME280;57757;53.198;19.646;2023-01-05T06:44:12;98679.84;;;7.01;81.82
70338;BME280;57757;53.198;19.646;2023-01-05T06:46:39;98689.07;;;6.99;81.83
70338;BME280;57757;53.198;19.646;2023-01-05T06:49:10;98682.29;;;6.95;81.58
70338;BME280;57757;53.198;19.646;2023-01-05T06:51:39;98691.02;;;6.92;81.55
70338;BME280;57757;53.198;19.646;2023-01-05T06:54:07;98691.00;;;6.87;81.51
70338;BME280;57757;53.198;19.646;2023-01-05T06:56:35;98698.90;;;6.84;81.47
70338;BME280;57757;53.198;19.646;2023-01-05T06:59:03;98703.67;;;6.80;81.45
70338;BME280;57757;53.198;19.646;2023-01-05T07:01:31;98707.39;;;6.78;81.52
70338;BME280;57757;53.198;19.646;2023-01-05T07:03:59;98713.83;;;6.76;81.40
70338;BME280;57757;53.198;19.646;2023-01-05T07:06:33;98723.42;;;6.73;81.38
70338;BME280;57757;53.198;19.646;2023-01-05T07:09:02;98736.95;;;6.71;81.30
70338;BME280;57757;53.198;19.646;2023-01-05T07:11:31;98737.08;;;6.67;81.20
70338;BME280;57757;53.198;19.646;2023-01-05T07:13:59;98748.45;;;6.63;80.92
70338;BME280;57757;53.198;19.646;2023-01-05T07:16:26;98747.29;;;6.56;80.85
70338;BME280;57757;53.198;19.646;2023-01-05T07:18:54;98753.50;;;6.50;80.93
70338;BME280;57757;53.198;19.646;2023-01-05T07:21:22;98764.00;;;6.45;80.83
70338;BME280;57757;53.198;19.646;2023-01-05T07:23:50;98764.85;;;6.41;80.83
70338;BME280;57757;53.198;19.646;2023-01-05T07:26:18;98764.30;;;6.35;80.66
70338;BME280;57757;53.198;19.646;2023-01-05T07:28:46;98774.08;;;6.32;80.82
70338;BME280;57757;53.198;19.646;2023-01-05T07:31:13;98772.77;;;6.35;81.18
70338;BME280;57757;53.198;19.646;2023-01-05T07:33:42;98778.72;;;6.38;81.12
70338;BME280;57757;53.198;19.646;2023-01-05T07:36:09;98775.88;;;6.41;81.07
70338;BME280;57757;53.198;19.646;2023-01-05T07:38:37;98778.58;;;6.44;80.79
70338;BME280;57757;53.198;19.646;2023-01-05T07:41:05;98784.63;;;6.43;80.89
70338;BME280;57757;53.198;19.646;2023-01-05T07:43:33;98790.11;;;6.45;80.79
70338;BME280;57757;53.198;19.646;2023-01-05T07:46:02;98788.35;;;6.45;80.82
70338;BME280;57757;53.198;19.646;2023-01-05T07:48:30;98788.98;;;6.47;80.79
70338;BME280;57757;53.198;19.646;2023-01-05T07:51:03;98792.73;;;6.44;80.64
70338;BME280;57757;53.198;19.646;2023-01-05T07:53:33;98793.02;;;6.39;80.43
70338;BME280;57757;53.198;19.646;2023-01-05T07:56:11;98799.72;;;6.35;80.60
70338;BME280;57757;53.198;19.646;2023-01-05T07:58:39;98803.61;;;6.32;80.51
70338;BME280;57757;53.198;19.646;2023-01-05T08:01:10;98806.77;;;6.30;80.64
70338;BME280;57757;53.198;19.646;2023-01-05T08:03:39;98810.30;;;6.27;80.50
70338;BME280;57757;53.198;19.646;2023-01-05T08:06:16;98814.83;;;6.25;80.50
70338;BME280;57757;53.198;19.646;2023-01-05T08:08:46;98810.19;;;6.24;80.60
70338;BME280;57757;53.198;19.646;2023-01-05T08:11:15;98815.15;;;6.25;80.67
70338;BME280;57757;53.198;19.646;2023-01-05T08:13:44;98823.43;;;6.25;80.62
70338;BME280;57757;53.198;19.646;2023-01-05T08:16:28;98824.13;;;6.25;80.54
70338;BME280;57757;53.198;19.646;2023-01-05T08:18:58;98826.16;;;6.27;80.47
70338;BME280;57757;53.198;19.646;2023-01-05T08:21:26;98831.48;;;6.28;80.58
70338;BME280;57757;53.198;19.646;2023-01-05T08:23:54;98835.23;;;6.30;80.63
70338;BME280;57757;53.198;19.646;2023-01-05T08:26:27;98830.20;;;6.31;80.66
70338;BME280;57757;53.198;19.646;2023-01-05T08:28:55;98833.21;;;6.34;80.72
70338;BME280;57757;53.198;19.646;2023-01-05T08:31:28;98838.12;;;6.38;80.63
70338;BME280;57757;53.198;19.646;2023-01-05T08:33:57;98836.65;;;6.41;80.69
70338;BME280;57757;53.198;19.646;2023-01-05T08:36:26;98837.65;;;6.43;80.80
70338;BME280;57757;53.198;19.646;2023-01-05T08:38:54;98843.48;;;6.44;80.60
70338;BME280;57757;53.198;19.646;2023-01-05T08:41:30;98841.72;;;6.45;80.60
70338;BME280;57757;53.198;19.646;2023-01-05T08:44:02;98842.22;;;6.46;80.58
70338;BME280;57757;53.198;19.646;2023-01-05T08:46:32;98849.36;;;6.49;80.64
70338;BME280;57757;53.198;19.646;2023-01-05T08:49:04;98850.66;;;6.52;80.80
70338;BME280;57757;53.198;19.646;2023-01-05T08:51:32;98847.76;;;6.57;80.73
70338;BME280;57757;53.198;19.646;2023-01-05T08:54:05;98847.64;;;6.62;80.66
70338;BME280;57757;53.198;19.646;2023-01-05T08:56:33;98851.34;;;6.65;80.66
70338;BME280;57757;53.198;19.646;2023-01-05T08:59:06;98847.62;;;6.68;80.61
70338;BME280;57757;53.198;19.646;2023-01-05T09:01:34;98848.70;;;6.72;80.57
70338;BME280;57757;53.198;19.646;2023-01-05T09:04:04;98848.55;;;6.77;80.65
70338;BME280;57757;53.198;19.646;2023-01-05T09:06:31;98851.09;;;6.79;80.29
70338;BME280;57757;53.198;19.646;2023-01-05T09:08:59;98860.36;;;6.82;80.32
70338;BME280;57757;53.198;19.646;2023-01-05T09:11:27;98856.10;;;6.85;80.43
70338;BME280;57757;53.198;19.646;2023-01-05T09:13:58;98854.42;;;6.89;80.21
70338;BME280;57757;53.198;19.646;2023-01-05T09:16:28;98855.52;;;6.93;80.28
70338;BME280;57757;53.198;19.646;2023-01-05T09:19:16;98860.80;;;6.95;80.04
70338;BME280;57757;53.198;19.646;2023-01-05T09:21:44;98858.12;;;6.99;80.20
70338;BME280;57757;53.198;19.646;2023-01-05T09:24:12;98860.48;;;7.00;79.92
70338;BME280;57757;53.198;19.646;2023-01-05T09:26:41;98862.46;;;7.03;80.07
70338;BME280;57757;53.198;19.646;2023-01-05T09:29:10;98859.23;;;7.07;80.03
70338;BME280;57757;53.198;19.646;2023-01-05T09:31:40;98850.48;;;7.11;80.02
70338;BME280;57757;53.198;19.646;2023-01-05T09:34:08;98852.79;;;7.15;79.78
70338;BME280;57757;53.198;19.646;2023-01-05T09:36:40;98843.59;;;7.16;79.67
70338;BME280;57757;53.198;19.646;2023-01-05T09:39:15;98844.73;;;7.17;79.74
70338;BME280;57757;53.198;19.646;2023-01-05T09:41:59;98850.80;;;7.17;79.50
70338;BME280;57757;53.198;19.646;2023-01-05T09:44:34;98846.88;;;7.16;79.66
70338;BME280;57757;53.198;19.646;2023-01-05T09:47:16;98845.85;;;7.15;79.64
70338;BME280;57757;53.198;19.646;2023-01-05T09:49:48;98853.04;;;7.18;79.82
70338;BME280;57757;53.198;19.646;2023-01-05T09:52:22;98852.86;;;7.18;79.54
70338;BME280;57757;53.198;19.646;2023-01-05T09:54:51;98853.29;;;7.15;79.38
70338;BME280;57757;53.198;19.646;2023-01-05T09:57:21;98855.40;;;7.14;79.43
70338;BME280;57757;53.198;19.646;2023-01-05T09:59:53;98852.71;;;7.12;79.22
70338;BME280;57757;53.198;19.646;2023-01-05T10:04:58;98856.63;;;7.08;79.23
70338;BME280;57757;53.198;19.646;2023-01-05T10:07:53;98853.58;;;7.06;79.25
70338;BME280;57757;53.198;19.646;2023-01-05T10:12:59;98850.54;;;7.03;79.24
70338;BME280;57757;53.198;19.646;2023-01-05T10:15:52;98845.71;;;7.03;79.25
70338;BME280;57757;53.198;19.646;2023-01-05T10:18:23;98848.33;;;7.02;79.25
70338;BME280;57757;53.198;19.646;2023-01-05T10:26:42;98843.97;;;6.92;79.15
70338;BME280;57757;53.198;19.646;2023-01-05T10:32:10;98844.95;;;6.82;79.31
70338;BME280;57757;53.198;19.646;2023-01-05T10:35:00;98841.64;;;6.78;79.39
70338;BME280;57757;53.198;19.646;2023-01-05T10:46:00;98845.85;;;6.64;79.63
70338;BME280;57757;53.198;19.646;2023-01-05T10:48:49;98858.27;;;6.58;79.45
70338;BME280;57757;53.198;19.646;2023-01-05T10:51:17;98847.17;;;6.54;79.61
70338;BME280;57757;53.198;19.646;2023-01-05T10:53:45;98849.35;;;6.50;79.61
70338;BME280;57757;53.198;19.646;2023-01-05T10:56:29;98848.90;;;6.48;79.65
70338;BME280;57757;53.198;19.646;2023-01-05T10:59:14;98842.94;;;6.44;79.84
70338;BME280;57757;53.198;19.646;2023-01-05T11:01:46;98844.41;;;6.42;79.90
70338;BME280;57757;53.198;19.646;2023-01-05T11:04:19;98840.50;;;6.40;79.96
70338;BME280;57757;53.198;19.646;2023-01-05T11:07:05;98840.35;;;6.39;79.77
70338;BME280;57757;53.198;19.646;2023-01-05T11:09:38;98841.77;;;6.37;79.89
70338;BME280;57757;53.198;19.646;2023-01-05T11:12:23;98836.23;;;6.37;79.94
70338;BME280;57757;53.198;19.646;2023-01-05T11:14:55;98839.88;;;6.37;79.87
70338;BME280;57757;53.198;19.646;2023-01-05T11:17:27;98837.48;;;6.36;79.91
70338;BME280;57757;53.198;19.646;2023-01-05T11:19:56;98836.45;;;6.36;79.74
70338;BME280;57757;53.198;19.646;2023-01-05T11:24:53;98833.73;;;6.34;79.69
70338;BME280;57757;53.198;19.646;2023-01-05T11:27:23;98841.02;;;6.33;79.60
70338;BME280;57757;53.198;19.646;2023-01-05T11:32:40;98840.11;;;6.34;79.84
70338;BME280;57757;53.198;19.646;2023-01-05T11:35:26;98832.50;;;6.36;79.79
70338;BME280;57757;53.198;19.646;2023-01-05T11:37:57;98834.13;;;6.51;81.14
70338;BME280;57757;53.198;19.646;2023-01-05T11:40:32;98835.11;;;6.82;80.65
70338;BME280;57757;53.198;19.646;2023-01-05T11:43:09;98826.27;;;6.77;79.51
70338;BME280;57757;53.198;19.646;2023-01-05T11:45:47;98829.54;;;6.72;79.38
70338;BME280;57757;53.198;19.646;2023-01-05T11:48:20;98830.91;;;6.66;79.28
70338;BME280;57757;53.198;19.646;2023-01-05T11:50:51;98838.79;;;6.63;79.23
70338;BME280;57757;53.198;19.646;2023-01-05T11:53:36;98833.72;;;6.59;79.26
70338;BME280;57757;53.198;19.646;2023-01-05T11:58:52;98828.42;;;6.57;79.29
70338;BME280;57757;53.198;19.646;2023-01-05T12:01:45;98833.27;;;6.57;79.20
70338;BME280;57757;53.198;19.646;2023-01-05T12:07:15;98843.66;;;6.62;79.21
70338;BME280;57757;53.198;19.646;2023-01-05T12:09:56;98837.17;;;6.65;79.14
70338;BME280;57757;53.198;19.646;2023-01-05T12:21:22;98844.17;;;6.62;79.11
70338;BME280;57757;53.198;19.646;2023-01-05T12:23:57;98854.75;;;6.60;78.99
70338;BME280;57757;53.198;19.646;2023-01-05T12:26:37;98844.14;;;6.57;79.14
70338;BME280;57757;53.198;19.646;2023-01-05T12:32:48;98834.07;;;6.52;79.03
70338;BME280;57757;53.198;19.646;2023-01-05T12:36:07;98828.20;;;6.52;79.13
70338;BME280;57757;53.198;19.646;2023-01-05T12:49:36;98823.13;;;6.55;79.17
70338;BME280;57757;53.198;19.646;2023-01-05T12:52:07;98824.30;;;6.56;79.13
70338;BME280;57757;53.198;19.646;2023-01-05T13:00:18;98827.55;;;6.58;79.01
70338;BME280;57757;53.198;19.646;2023-01-05T13:03:00;98825.59;;;6.59;78.93
70338;BME280;57757;53.198;19.646;2023-01-05T13:05:33;98832.47;;;6.60;79.03
70338;BME280;57757;53.198;19.646;2023-01-05T13:08:25;98824.11;;;6.63;78.88
70338;BME280;57757;53.198;19.646;2023-01-05T13:11:16;98835.31;;;6.63;78.85
70338;BME280;57757;53.198;19.646;2023-01-05T13:13:51;98832.02;;;6.64;78.88
70338;BME280;57757;53.198;19.646;2023-01-05T13:16:40;98831.12;;;6.65;78.76
70338;BME280;57757;53.198;19.646;2023-01-05T13:21:44;98839.41;;;6.65;78.82
70338;BME280;57757;53.198;19.646;2023-01-05T13:24:18;98837.33;;;6.65;78.87
70338;BME280;57757;53.198;19.646;2023-01-05T13:26:56;98831.61;;;6.66;78.68
70338;BME280;57757;53.198;19.646;2023-01-05T13:29:30;98835.59;;;6.66;78.70
70338;BME280;57757;53.198;19.646;2023-01-05T13:38:19;98847.43;;;6.63;78.66
70338;BME280;57757;53.198;19.646;2023-01-05T13:51:56;98879.30;;;6.29;79.13
70338;BME280;57757;53.198;19.646;2023-01-05T13:56:54;98887.92;;;6.15;79.26
70338;BME280;57757;53.198;19.646;2023-01-05T13:59:31;98894.83;;;6.09;79.27
70338;BME280;57757;53.198;19.646;2023-01-05T14:03:20;98901.17;;;6.04;79.25
70338;BME280;57757;53.198;19.646;2023-01-05T14:05:53;98906.38;;;5.96;79.42
70338;BME280;57757;53.198;19.646;2023-01-05T14:08:25;98915.55;;;5.89;79.33
70338;BME280;57757;53.198;19.646;2023-01-05T14:14:23;98924.50;;;5.81;79.60
70338;BME280;57757;53.198;19.646;2023-01-05T14:16:53;98940.65;;;5.76;79.69
70338;BME280;57757;53.198;19.646;2023-01-05T14:19:23;98943.84;;;5.73;79.74
70338;BME280;57757;53.198;19.646;2023-01-05T14:21:59;98944.95;;;5.69;79.69
70338;BME280;57757;53.198;19.646;2023-01-05T14:35:18;98983.66;;;5.44;79.14
70338;BME280;57757;53.198;19.646;2023-01-05T14:37:54;99004.67;;;5.36;79.07
70338;BME280;57757;53.198;19.646;2023-01-05T14:40:31;99004.66;;;5.29;78.92
70338;BME280;57757;53.198;19.646;2023-01-05T14:43:04;99015.80;;;5.23;79.05
70338;BME280;57757;53.198;19.646;2023-01-05T14:45:35;99019.83;;;5.20;79.05
70338;BME280;57757;53.198;19.646;2023-01-05T14:48:26;99018.84;;;5.18;79.04
70338;BME280;57757;53.198;19.646;2023-01-05T14:51:16;99032.34;;;5.15;78.99
70338;BME280;57757;53.198;19.646;2023-01-05T14:53:48;99038.25;;;5.13;79.09
70338;BME280;57757;53.198;19.646;2023-01-05T14:56:27;99048.27;;;5.11;78.94
70338;BME280;57757;53.198;19.646;2023-01-05T15:02:03;99060.46;;;5.04;79.04
70338;BME280;57757;53.198;19.646;2023-01-05T15:04:42;99065.13;;;5.04;79.07
70338;BME280;57757;53.198;19.646;2023-01-05T15:32:08;99116.48;;;4.85;79.38
70338;BME280;57757;53.198;19.646;2023-01-05T15:35:07;99125.77;;;4.85;79.33
70338;BME280;57757;53.198;19.646;2023-01-05T15:37:38;99128.00;;;4.86;79.23
70338;BME280;57757;53.198;19.646;2023-01-05T15:40:28;99131.46;;;4.85;79.21
70338;BME280;57757;53.198;19.646;2023-01-05T15:43:01;99140.77;;;4.84;79.20
70338;BME280;57757;53.198;19.646;2023-01-05T15:45:35;99144.04;;;4.83;79.32
70338;BME280;57757;53.198;19.646;2023-01-05T15:48:16;99145.27;;;4.83;79.38
70338;BME280;57757;53.198;19.646;2023-01-05T15:50:49;99146.81;;;4.83;79.27
70338;BME280;57757;53.198;19.646;2023-01-05T15:53:34;99152.85;;;4.83;79.32
70338;BME280;57757;53.198;19.646;2023-01-05T15:56:06;99163.69;;;4.83;79.42
70338;BME280;57757;53.198;19.646;2023-01-05T15:58:50;99161.95;;;4.85;79.34
70338;BME280;57757;53.198;19.646;2023-01-05T16:01:18;99166.59;;;4.85;79.47
70338;BME280;57757;53.198;19.646;2023-01-05T16:03:46;99171.42;;;4.86;79.56
70338;BME280;57757;53.198;19.646;2023-01-05T16:06:18;99176.75;;;4.86;79.46
70338;BME280;57757;53.198;19.646;2023-01-05T16:08:52;99181.23;;;4.86;79.51
70338;BME280;57757;53.198;19.646;2023-01-05T16:11:31;99180.73;;;4.86;79.53
70338;BME280;57757;53.198;19.646;2023-01-05T16:14:15;99187.91;;;4.88;79.59